createdAt,value
2018-09-19T00:00:00.865Z,4.27
2018-09-19T00:02:28.609Z,4.47
2018-09-19T00:04:56.468Z,4.43
2018-09-19T00:07:24.332Z,4.20
2018-09-19T00:09:52.172Z,4.50
2018-09-19T00:12:21.198Z,4.53
2018-09-19T00:14:48.997Z,3.47
2018-09-19T00:17:17.342Z,5.40
2018-09-19T00:19:45.261Z,3.93
2018-09-19T00:22:13.614Z,3.67
2018-09-19T00:24:42.255Z,4.83
2018-09-19T00:27:10.535Z,4.20
2018-09-19T00:29:39.165Z,4.40
2018-09-19T00:32:07.138Z,4.07
2018-09-19T00:34:35.355Z,4.70
2018-09-19T00:37:03.383Z,3.70
2018-09-19T00:39:31.962Z,3.73
2018-09-19T00:42:00.134Z,4.30
2018-09-19T00:44:27.859Z,5.07
2018-09-19T00:46:55.806Z,3.80
2018-09-19T00:49:23.892Z,4.83
2018-09-19T00:51:51.830Z,4.60
2018-09-19T00:54:20.422Z,3.60
2018-09-19T00:56:49.492Z,4.10
2018-09-19T00:59:17.195Z,4.23
2018-09-19T01:01:44.952Z,4.43
2018-09-19T01:04:13.425Z,4.40
2018-09-19T01:06:42.557Z,4.23
2018-09-19T01:09:11.355Z,4.00
2018-09-19T01:11:39.488Z,4.00
2018-09-19T01:14:07.282Z,3.00
2018-09-19T01:16:35.124Z,4.20
2018-09-19T01:19:02.954Z,2.90
2018-09-19T01:21:30.899Z,3.70
2018-09-19T01:23:58.925Z,4.20
2018-09-19T01:26:26.899Z,4.00
2018-09-19T01:28:54.886Z,5.60
2018-09-19T01:31:23.717Z,5.60
2018-09-19T01:33:51.627Z,4.40
2018-09-19T01:36:19.646Z,4.50
2018-09-19T01:38:47.705Z,3.60
2018-09-19T01:41:15.474Z,3.30
2018-09-19T01:43:43.221Z,4.10
2018-09-19T01:46:11.265Z,4.40
2018-09-19T01:48:39.099Z,4.57
2018-09-19T01:51:06.892Z,4.23
2018-09-19T01:53:34.755Z,3.80
2018-09-19T01:56:02.584Z,3.70
2018-09-19T01:58:31.142Z,3.70
2018-09-19T02:00:59.741Z,3.83
2018-09-19T02:03:27.706Z,4.00
2018-09-19T02:05:55.660Z,4.40
2018-09-19T02:08:23.882Z,4.00
2018-09-19T02:10:51.855Z,3.93
2018-09-19T02:13:20.199Z,3.80
2018-09-19T02:15:48.221Z,3.97
2018-09-19T02:18:16.109Z,3.40
2018-09-19T02:20:44.122Z,3.57
2018-09-19T02:23:12.574Z,3.87
2018-09-19T02:25:41.227Z,5.87
2018-09-19T02:28:09.352Z,5.10
2018-09-19T02:30:37.243Z,4.87
2018-09-19T02:33:05.390Z,5.60
2018-09-19T02:35:33.133Z,4.70
2018-09-19T02:38:00.850Z,4.67
2018-09-19T02:40:30.046Z,6.27
2018-09-19T02:42:57.910Z,5.53
2018-09-19T02:45:25.733Z,4.43
2018-09-19T02:47:53.569Z,3.90
2018-09-19T02:50:21.383Z,5.10
2018-09-19T02:52:54.986Z,3.83
2018-09-19T02:55:23.322Z,4.80
2018-09-19T02:57:51.538Z,4.40
2018-09-19T03:00:20.072Z,4.80
2018-09-19T03:02:48.639Z,4.73
2018-09-19T03:05:16.560Z,4.50
2018-09-19T03:07:44.636Z,4.20
2018-09-19T03:10:12.369Z,5.37
2018-09-19T03:12:40.152Z,4.33
2018-09-19T03:15:08.848Z,4.73
2018-09-19T03:17:36.862Z,5.43
2018-09-19T03:20:05.287Z,4.73
2018-09-19T03:22:33.304Z,4.80
2018-09-19T03:25:02.204Z,4.60
2018-09-19T03:27:30.201Z,4.80
2018-09-19T03:29:58.172Z,4.67
2018-09-19T03:32:26.913Z,6.17
2018-09-19T03:34:54.601Z,5.27
2018-09-19T03:37:22.419Z,7.20
2018-09-19T03:39:50.407Z,4.37
2018-09-19T03:42:18.609Z,4.63
2018-09-19T03:44:46.878Z,4.87
2018-09-19T03:47:14.913Z,5.40
2018-09-19T03:49:43.440Z,5.80
2018-09-19T03:52:12.119Z,4.40
2018-09-19T03:54:40.328Z,5.47
2018-09-19T03:57:08.829Z,5.13
2018-09-19T03:59:36.477Z,5.17
2018-09-19T04:02:04.258Z,5.43
2018-09-19T04:04:32.936Z,4.83
2018-09-19T04:07:02.451Z,5.20
2018-09-19T04:09:30.950Z,6.00
2018-09-19T04:11:58.852Z,4.90
2018-09-19T04:14:27.321Z,5.30
2018-09-19T04:16:55.216Z,5.77
2018-09-19T04:19:23.792Z,5.47
2018-09-19T04:21:52.967Z,4.90
2018-09-19T04:24:20.668Z,4.60
2018-09-19T04:26:49.274Z,4.70
2018-09-19T04:29:17.287Z,5.57
2018-09-19T04:31:45.476Z,5.60
2018-09-19T04:34:14.265Z,4.73
2018-09-19T04:36:42.744Z,4.73
2018-09-19T04:39:12.781Z,5.70
2018-09-19T04:41:41.388Z,5.50
2018-09-19T04:44:09.760Z,6.17
2018-09-19T04:46:38.274Z,4.70
2018-09-19T04:49:06.608Z,5.57
2018-09-19T04:51:34.425Z,5.20
2018-09-19T04:54:03.418Z,5.90
2018-09-19T04:56:31.564Z,6.20
2018-09-19T04:58:59.247Z,5.43
2018-09-19T05:01:26.998Z,4.93
2018-09-19T05:03:54.895Z,6.13
2018-09-19T05:06:23.168Z,5.23
2018-09-19T05:08:50.989Z,6.17
2018-09-19T05:11:18.929Z,4.87
2018-09-19T05:13:47.350Z,5.67
2018-09-19T05:16:15.992Z,5.70
2018-09-19T05:18:43.729Z,5.13
2018-09-19T05:21:11.615Z,5.00
2018-09-19T05:23:39.717Z,6.00
2018-09-19T05:26:07.637Z,4.80
2018-09-19T05:28:35.522Z,5.53
2018-09-19T05:31:03.318Z,5.50
2018-09-19T05:33:31.373Z,5.80
2018-09-19T05:36:00.948Z,5.47
2018-09-19T05:38:28.846Z,6.17
2018-09-19T05:40:57.141Z,6.40
2018-09-19T05:43:25.669Z,5.20
2018-09-19T05:45:53.662Z,5.20
2018-09-19T05:48:22.257Z,6.37
2018-09-19T05:50:50.019Z,6.80
2018-09-19T05:53:18.934Z,6.27
2018-09-19T05:55:46.698Z,7.07
2018-09-19T05:58:14.253Z,5.13
2018-09-19T06:00:41.975Z,6.53
2018-09-19T06:03:10.098Z,6.00
2018-09-19T06:05:39.375Z,5.70
2018-09-19T06:08:07.133Z,5.07
2018-09-19T06:10:35.230Z,5.80
2018-09-19T06:13:03.236Z,6.23
2018-09-19T06:15:30.818Z,6.33
2018-09-19T06:17:58.400Z,6.17
2018-09-19T06:20:26.030Z,5.30
2018-09-19T06:22:53.590Z,5.67
2018-09-19T06:25:21.185Z,5.27
2018-09-19T06:27:48.790Z,5.80
2018-09-19T06:30:16.430Z,4.93
2018-09-19T06:32:43.999Z,5.50
2018-09-19T06:35:11.683Z,4.40
2018-09-19T06:37:39.231Z,6.00
2018-09-19T06:40:06.985Z,5.10
2018-09-19T06:42:34.584Z,5.87
2018-09-19T06:45:02.225Z,5.90
2018-09-19T06:47:29.832Z,5.10
2018-09-19T06:49:57.417Z,6.50
2018-09-19T06:52:25.001Z,5.83
2018-09-19T06:54:52.566Z,5.70
2018-09-19T06:57:20.260Z,6.53
2018-09-19T06:59:47.829Z,5.43
2018-09-19T07:02:15.605Z,3.70
2018-09-19T07:04:43.250Z,6.20
2018-09-19T07:07:10.847Z,6.10
2018-09-19T07:09:38.687Z,6.80
2018-09-19T07:12:06.463Z,5.93
2018-09-19T07:14:34.197Z,5.70
2018-09-19T07:17:01.773Z,6.20
2018-09-19T07:19:29.369Z,5.53
2018-09-19T07:21:56.952Z,6.70
2018-09-19T07:24:24.458Z,6.90
2018-09-19T07:26:52.082Z,7.40
2018-09-19T07:29:20.590Z,6.90
2018-09-19T07:31:49.043Z,8.40
2018-09-19T07:34:17.795Z,7.83
2018-09-19T07:36:46.886Z,6.53
2018-09-19T07:39:15.887Z,7.97
2018-09-19T07:41:43.883Z,7.93
2018-09-19T07:44:12.418Z,7.40
2018-09-19T07:46:40.477Z,6.93
2018-09-19T07:49:10.037Z,7.63
2018-09-19T07:51:38.532Z,7.40
2018-09-19T07:54:06.361Z,7.53
2018-09-19T07:56:35.494Z,9.07
2018-09-19T07:59:03.951Z,7.33
2018-09-19T08:01:32.466Z,6.67
2018-09-19T08:04:01.254Z,8.50
2018-09-19T08:06:29.408Z,7.97
2018-09-19T08:08:57.343Z,7.33
2018-09-19T08:11:25.677Z,7.20
2018-09-19T08:13:53.898Z,7.57
2018-09-19T08:16:21.885Z,9.10
2018-09-19T08:18:49.846Z,7.60
2018-09-19T08:21:17.743Z,6.90
2018-09-19T08:23:45.581Z,8.27
2018-09-19T08:26:15.109Z,7.40
2018-09-19T08:28:44.056Z,8.80
2018-09-19T08:31:11.822Z,7.60
2018-09-19T08:33:40.163Z,7.53
2018-09-19T08:36:08.097Z,7.37
2018-09-19T08:38:37.505Z,8.70
2018-09-19T08:41:05.350Z,6.63
2018-09-19T08:43:32.933Z,8.40
2018-09-19T08:46:00.501Z,8.50
2018-09-19T08:48:28.050Z,6.27
2018-09-19T08:50:55.612Z,6.77
2018-09-19T08:53:23.195Z,6.40
2018-09-19T08:55:50.774Z,6.40
2018-09-19T08:58:18.633Z,6.67
2018-09-19T09:00:46.197Z,5.70
2018-09-19T09:03:13.977Z,6.60
2018-09-19T09:05:41.526Z,5.93
2018-09-19T09:08:09.302Z,6.20
2018-09-19T09:10:36.962Z,6.03
2018-09-19T09:13:04.518Z,6.57
2018-09-19T09:15:32.096Z,5.83
2018-09-19T09:17:59.761Z,6.27
2018-09-19T09:20:27.384Z,6.73
2018-09-19T09:22:55.073Z,5.20
2018-09-19T09:25:22.603Z,5.20
2018-09-19T09:27:50.209Z,6.20
2018-09-19T09:30:17.899Z,5.50
2018-09-19T09:32:45.464Z,5.17
2018-09-19T09:35:13.114Z,4.50
2018-09-19T09:37:40.653Z,5.30
2018-09-19T09:40:09.124Z,4.63
2018-09-19T09:42:36.981Z,4.47
2018-09-19T09:45:04.733Z,4.17
2018-09-19T09:47:32.533Z,4.03
2018-09-19T09:50:00.153Z,8.87
2018-09-19T09:52:27.692Z,4.53
2018-09-19T09:54:55.311Z,4.70
2018-09-19T09:57:22.877Z,3.60
2018-09-19T09:59:50.465Z,2.90
2018-09-19T10:02:18.029Z,3.20
2018-09-19T10:04:45.618Z,3.50
2018-09-19T10:07:13.213Z,2.50
2018-09-19T10:09:40.793Z,3.30
2018-09-19T10:12:08.326Z,3.73
2018-09-19T10:14:35.854Z,3.00
2018-09-19T10:17:03.413Z,2.77
2018-09-19T10:19:31.087Z,3.33
2018-09-19T10:21:58.807Z,3.33
2018-09-19T10:24:26.606Z,3.43
2018-09-19T10:26:55.085Z,3.77
2018-09-19T10:29:23.131Z,3.20
2018-09-19T10:31:50.999Z,3.77
2018-09-19T10:34:19.603Z,3.10
2018-09-19T10:36:47.411Z,3.30
2018-09-19T10:39:15.669Z,2.77
2018-09-19T10:41:43.521Z,3.10
2018-09-19T10:44:11.343Z,2.60
2018-09-19T10:46:39.838Z,2.70
2018-09-19T10:49:08.315Z,2.60
2018-09-19T10:51:36.354Z,3.10
2018-09-19T10:54:04.349Z,2.67
2018-09-19T10:56:32.265Z,2.90
2018-09-19T10:59:00.855Z,2.77
2018-09-19T11:01:28.894Z,3.20
2018-09-19T11:03:56.819Z,3.37
2018-09-19T11:06:25.461Z,3.33
2018-09-19T11:08:54.012Z,3.37
2018-09-19T11:11:22.560Z,2.97
2018-09-19T11:13:50.571Z,2.97
2018-09-19T11:16:18.599Z,2.97
2018-09-19T11:18:47.234Z,3.20
2018-09-19T11:21:15.706Z,3.60
2018-09-19T11:23:44.326Z,3.00
2018-09-19T11:26:12.576Z,3.40
2018-09-19T11:28:41.219Z,3.30
2018-09-19T11:31:10.817Z,3.03
2018-09-19T11:33:38.621Z,3.50
2018-09-19T11:36:06.601Z,2.80
2018-09-19T11:38:34.631Z,3.77
2018-09-19T11:41:03.233Z,3.43
2018-09-19T11:43:31.769Z,3.60
2018-09-19T11:46:00.886Z,3.33
2018-09-19T11:48:28.624Z,4.40
2018-09-19T11:50:57.064Z,3.10
2018-09-19T11:53:27.682Z,4.67
2018-09-19T11:55:56.052Z,4.67
2018-09-19T11:58:23.851Z,3.47
2018-09-19T12:00:51.953Z,3.60
2018-09-19T12:03:19.734Z,4.10
2018-09-19T12:05:48.446Z,3.80
2018-09-19T12:08:16.424Z,4.17
2018-09-19T12:10:45.026Z,3.37
2018-09-19T12:13:13.608Z,3.70
2018-09-19T12:15:41.509Z,3.37
2018-09-19T12:18:10.643Z,3.63
2018-09-19T12:20:39.049Z,3.33
2018-09-19T12:23:07.958Z,4.00
2018-09-19T12:25:35.952Z,3.13
2018-09-19T12:28:03.898Z,3.10
2018-09-19T12:30:32.476Z,4.70
2018-09-19T12:33:00.941Z,3.07
2018-09-19T12:35:29.710Z,4.20
2018-09-19T12:37:57.833Z,3.77
2018-09-19T12:40:25.649Z,4.10
2018-09-19T12:42:54.215Z,3.80
2018-09-19T12:45:23.091Z,3.70
2018-09-19T12:47:51.371Z,4.70
2018-09-19T12:50:19.348Z,3.60
2018-09-19T12:52:48.155Z,3.83
2018-09-19T12:55:15.747Z,4.03
2018-09-19T12:57:43.566Z,2.90
2018-09-19T13:00:11.230Z,3.50
2018-09-19T13:02:38.804Z,3.53
2018-09-19T13:05:06.441Z,3.90
2018-09-19T13:07:34.057Z,4.37
2018-09-19T13:10:01.618Z,3.33
2018-09-19T13:12:29.508Z,3.33
2018-09-19T13:14:57.066Z,3.30
2018-09-19T13:17:24.610Z,2.97
2018-09-19T13:19:52.137Z,3.30
2018-09-19T13:22:19.700Z,3.50
2018-09-19T13:24:47.239Z,3.63
2018-09-19T13:27:14.748Z,3.60
2018-09-19T13:29:42.320Z,3.20
2018-09-19T13:32:09.985Z,3.37
2018-09-19T13:34:37.536Z,4.40
2018-09-19T13:37:05.185Z,3.20
2018-09-19T13:39:32.930Z,2.97
2018-09-19T13:42:00.596Z,2.80
2018-09-19T13:44:28.268Z,3.20
2018-09-19T13:46:55.849Z,3.40
2018-09-19T13:49:25.727Z,3.30
2018-09-19T13:51:54.451Z,2.40
2018-09-19T13:54:22.244Z,3.00
2018-09-19T13:56:49.825Z,2.43
2018-09-19T13:59:17.384Z,2.17
2018-09-19T14:01:45.742Z,3.37
2018-09-19T14:04:14.610Z,3.13
2018-09-19T14:06:42.487Z,2.80
2018-09-19T14:09:11.617Z,3.03
2018-09-19T14:11:39.451Z,2.20
2018-09-19T14:14:07.440Z,3.00
2018-09-19T14:16:36.032Z,2.40
2018-09-19T14:19:04.266Z,4.03
2018-09-19T14:21:32.172Z,2.30
2018-09-19T14:24:00.612Z,2.37
2018-09-19T14:26:28.478Z,2.73
2018-09-19T14:28:56.569Z,3.00
2018-09-19T14:31:24.461Z,2.47
2018-09-19T14:33:52.756Z,2.37
2018-09-19T14:36:20.698Z,2.67
2018-09-19T14:38:48.689Z,2.73
2018-09-19T14:41:16.533Z,2.37
2018-09-19T14:43:45.019Z,2.80
2018-09-19T14:46:12.900Z,2.20
2018-09-19T14:48:41.633Z,2.70
2018-09-19T14:51:09.462Z,2.37
2018-09-19T14:53:37.432Z,2.30
2018-09-19T14:56:05.477Z,2.60
2018-09-19T14:58:34.101Z,3.13
2018-09-19T15:01:01.856Z,2.50
2018-09-19T15:03:30.305Z,2.67
2018-09-19T15:05:58.100Z,2.40
2018-09-19T15:08:26.487Z,3.80
2018-09-19T15:10:54.966Z,2.83
2018-09-19T15:13:22.839Z,2.63
2018-09-19T15:15:50.625Z,2.80
2018-09-19T15:18:19.787Z,3.07
2018-09-19T15:20:47.661Z,3.30
2018-09-19T15:23:16.604Z,3.00
2018-09-19T15:25:45.036Z,3.40
2018-09-19T15:28:12.822Z,3.60
2018-09-19T15:30:40.769Z,3.13
2018-09-19T15:33:09.354Z,3.60
2018-09-19T15:35:37.293Z,4.43
2018-09-19T15:38:05.287Z,3.07
2018-09-19T15:40:33.291Z,4.23
2018-09-19T15:43:02.270Z,3.70
2018-09-19T15:45:30.163Z,4.10
2018-09-19T15:47:58.041Z,4.00
2018-09-19T15:50:26.622Z,3.93
2018-09-19T15:52:54.719Z,4.27
2018-09-19T15:55:22.523Z,3.73
2018-09-19T15:57:50.423Z,4.50
2018-09-19T16:00:18.357Z,5.00
2018-09-19T16:02:46.118Z,4.30
2018-09-19T16:05:13.893Z,4.20
2018-09-19T16:07:42.273Z,4.90
2018-09-19T16:10:10.952Z,5.23
2018-09-19T16:12:38.817Z,4.60
2018-09-19T16:15:06.726Z,4.77
2018-09-19T16:17:36.010Z,4.77
2018-09-19T16:20:03.986Z,5.30
2018-09-19T16:22:31.968Z,4.70
2018-09-19T16:24:59.885Z,4.13
2018-09-19T16:27:27.862Z,4.30
2018-09-19T16:29:57.018Z,4.90
2018-09-19T16:32:25.868Z,4.30
2018-09-19T16:34:54.220Z,5.37
2018-09-19T16:37:22.100Z,5.60
2018-09-19T16:39:50.491Z,6.40
2018-09-19T16:42:18.610Z,5.50
2018-09-19T16:44:46.358Z,5.50
2018-09-19T16:47:14.466Z,5.50
2018-09-19T16:49:43.305Z,5.23
2018-09-19T16:52:11.145Z,5.50
2018-09-19T16:54:39.567Z,5.70
2018-09-19T16:57:07.404Z,5.70
2018-09-19T16:59:35.106Z,5.87
2018-09-19T17:02:03.306Z,4.80
2018-09-19T17:04:31.050Z,8.00
2018-09-19T17:06:59.407Z,8.20
2018-09-19T17:09:27.295Z,6.80
2018-09-19T17:11:54.972Z,9.27
2018-09-19T17:14:23.254Z,3.00
2018-09-19T17:16:51.323Z,8.20
2018-09-19T17:19:19.338Z,5.20
2018-09-19T17:21:47.866Z,7.10
2018-09-19T17:24:16.222Z,6.87
2018-09-19T17:26:44.057Z,7.63
2018-09-19T17:29:12.121Z,8.40
2018-09-19T17:31:40.020Z,9.10
2018-09-19T17:34:08.892Z,7.90
2018-09-19T17:36:36.554Z,8.93
2018-09-19T17:39:06.691Z,9.87
2018-09-19T17:41:34.649Z,10.60
2018-09-19T17:44:02.365Z,7.97
2018-09-19T17:46:30.990Z,9.53
2018-09-19T17:48:59.942Z,10.10
2018-09-19T17:51:28.350Z,9.50
2018-09-19T17:53:57.007Z,8.73
2018-09-19T17:56:25.074Z,9.73
2018-09-19T17:58:53.694Z,8.70
2018-09-19T18:01:21.971Z,9.80
2018-09-19T18:03:49.802Z,8.83
2018-09-19T18:06:17.565Z,9.50
2018-09-19T18:08:45.574Z,9.73
2018-09-19T18:11:13.450Z,8.80
2018-09-19T18:13:41.473Z,9.40
2018-09-19T18:16:10.112Z,9.63
2018-09-19T18:18:37.911Z,9.73
2018-09-19T18:21:06.323Z,9.50
2018-09-19T18:23:34.703Z,8.87
2018-09-19T18:26:03.172Z,10.90
2018-09-19T18:28:31.080Z,10.90
2018-09-19T18:30:59.466Z,9.83
2018-09-19T18:33:27.050Z,11.97
2018-09-19T18:35:54.681Z,9.80
2018-09-19T18:38:22.284Z,10.00
2018-09-19T18:40:49.847Z,9.77
2018-09-19T18:43:17.450Z,11.30
2018-09-19T18:45:45.065Z,10.87
2018-09-19T18:48:12.598Z,10.17
2018-09-19T18:50:40.163Z,9.87
2018-09-19T18:53:07.966Z,12.13
2018-09-19T18:55:35.960Z,11.00
2018-09-19T18:58:03.603Z,10.30
2018-09-19T19:00:32.519Z,11.90
2018-09-19T19:03:00.350Z,10.90
2018-09-19T19:05:28.170Z,11.87
2018-09-19T19:07:57.624Z,9.90
2018-09-19T19:10:25.670Z,11.53
2018-09-19T19:12:53.561Z,11.17
2018-09-19T19:15:23.011Z,10.23
2018-09-19T19:17:50.957Z,11.87
2018-09-19T19:20:18.747Z,11.60
2018-09-19T19:22:46.731Z,11.93
2018-09-19T19:25:14.398Z,11.30
2018-09-19T19:27:42.008Z,10.50
2018-09-19T19:30:09.656Z,10.27
2018-09-19T19:32:37.223Z,9.50
2018-09-19T19:35:04.821Z,10.47
2018-09-19T19:37:32.362Z,11.73
2018-09-19T19:39:59.974Z,10.77
2018-09-19T19:42:27.511Z,10.07
2018-09-19T19:44:55.204Z,10.30
2018-09-19T19:47:22.666Z,9.80
2018-09-19T19:49:50.286Z,10.60
2018-09-19T19:52:18.037Z,10.13
2018-09-19T19:54:45.534Z,10.97
2018-09-19T19:57:13.095Z,10.07
2018-09-19T19:59:40.683Z,11.20
2018-09-19T20:02:08.244Z,10.07
2018-09-19T20:04:36.107Z,10.30
2018-09-19T20:07:03.719Z,11.30
2018-09-19T20:09:31.363Z,10.60
2018-09-19T20:11:58.978Z,13.00
2018-09-19T20:14:26.594Z,10.17
2018-09-19T20:16:54.190Z,12.63
2018-09-19T20:19:22.072Z,11.47
2018-09-19T20:21:50.052Z,12.30
2018-09-19T20:24:17.633Z,10.60
2018-09-19T20:26:45.255Z,9.27
2018-09-19T20:29:12.805Z,9.93
2018-09-19T20:31:40.401Z,9.50
2018-09-19T20:34:07.995Z,9.50
2018-09-19T20:36:35.622Z,10.40
2018-09-19T20:39:04.207Z,8.83
2018-09-19T20:41:31.792Z,8.80
2018-09-19T20:43:59.349Z,10.30
2018-09-19T20:46:26.933Z,8.20
2018-09-19T20:48:54.493Z,7.70
2018-09-19T20:51:22.071Z,7.50
2018-09-19T20:53:49.645Z,7.20
2018-09-19T20:56:17.229Z,7.30
2018-09-19T20:58:44.780Z,7.10
2018-09-19T21:01:12.337Z,8.40
2018-09-19T21:03:39.893Z,6.80
2018-09-19T21:06:07.494Z,6.43
2018-09-19T21:08:35.049Z,7.43
2018-09-19T21:11:02.653Z,6.60
2018-09-19T21:13:30.304Z,6.13
2018-09-19T21:15:57.897Z,6.70
2018-09-19T21:18:25.477Z,6.40
2018-09-19T21:20:53.075Z,6.00
2018-09-19T21:23:20.644Z,5.63
2018-09-19T21:25:48.256Z,6.00
2018-09-19T21:28:15.842Z,6.23
2018-09-19T21:30:43.434Z,5.73
2018-09-19T21:33:10.994Z,6.03
2018-09-19T21:35:38.537Z,5.90
2018-09-19T21:38:06.101Z,6.27
2018-09-19T21:40:33.657Z,5.87
2018-09-19T21:43:01.159Z,6.30
2018-09-19T21:45:28.702Z,6.00
2018-09-19T21:47:56.253Z,6.00
2018-09-19T21:50:23.764Z,3.10
2018-09-19T21:52:51.353Z,4.30
2018-09-19T21:55:18.893Z,4.93
2018-09-19T21:57:46.512Z,5.87
2018-09-19T22:00:14.136Z,5.53
2018-09-19T22:02:41.666Z,5.47
2018-09-19T22:05:09.221Z,6.03
2018-09-19T22:07:36.779Z,5.27
2018-09-19T22:10:04.433Z,5.50
2018-09-19T22:12:31.939Z,5.00
2018-09-19T22:14:59.569Z,6.00
2018-09-19T22:17:27.135Z,4.93
2018-09-19T22:19:54.667Z,5.53
2018-09-19T22:22:22.242Z,5.63
2018-09-19T22:24:49.777Z,6.17
2018-09-19T22:27:17.367Z,5.57
2018-09-19T22:29:44.905Z,6.23
2018-09-19T22:32:12.495Z,5.40
2018-09-19T22:34:41.008Z,4.63
2018-09-19T22:37:08.550Z,4.80
2018-09-19T22:39:36.101Z,4.93
2018-09-19T22:42:03.661Z,4.70
2018-09-19T22:44:31.199Z,5.53
2018-09-19T22:46:58.757Z,4.27
2018-09-19T22:49:26.266Z,4.10
2018-09-19T22:51:53.812Z,3.30
2018-09-19T22:54:21.346Z,2.90
2018-09-19T22:56:48.866Z,5.27
2018-09-19T22:59:16.659Z,4.70
2018-09-19T23:01:44.279Z,5.00
2018-09-19T23:04:11.838Z,4.70
2018-09-19T23:06:39.642Z,5.50
2018-09-19T23:09:07.827Z,5.17
2018-09-19T23:11:35.371Z,4.87
2018-09-19T23:14:02.969Z,5.77
2018-09-19T23:16:30.539Z,4.80
2018-09-19T23:18:58.074Z,4.90
2018-09-19T23:21:25.627Z,5.30
2018-09-19T23:23:53.161Z,2.47
2018-09-19T23:26:20.715Z,4.10
2018-09-19T23:28:48.385Z,3.93
2018-09-19T23:31:15.918Z,4.70
2018-09-19T23:33:43.493Z,4.30
2018-09-19T23:36:11.089Z,4.70
2018-09-19T23:38:38.685Z,4.53
2018-09-19T23:41:06.258Z,4.40
2018-09-19T23:43:33.757Z,5.10
2018-09-19T23:46:01.355Z,4.87
2018-09-19T23:48:28.862Z,4.13
2018-09-19T23:50:56.383Z,3.93
2018-09-19T23:53:23.921Z,4.40
2018-09-19T23:55:51.450Z,3.67
2018-09-19T23:58:19.142Z,3.77
